Time;durP1;ratioP1;P1;durP2;ratioP2;P2;SDS_P1;SDS_P2;PMS_P1;PMS_P2;Temp;Humidity;BMP_temperature;BMP_pressure;BME280_temperature;BME280_humidity;BME280_pressure;Samples;Min_cycle;Max_cycle;Signal;HPM_P1;HPM_P2
2022/04/15 00:02:49;;;;;;;47.47;18.63;;;;;;;7.66;72.14;100348.03;6286995;28;20044;-72
2022/04/15 00:05:52;;;;;;;40.72;17.92;;;;;;;7.65;71.32;100349.75;6303386;28;20075;-71
2022/04/15 00:08:53;;;;;;;35.40;16.23;;;;;;;7.62;70.95;100349.06;6320184;28;20404;-71
2022/04/15 00:11:55;;;;;;;42.58;17.08;;;;;;;7.59;67.37;100350.03;6303214;28;20079;-71
2022/04/15 00:14:56;;;;;;;;;;;;;;;7.56;69.64;100355.38;6321606;28;20044;-74
2022/04/15 00:17:57;;;;;;;38.10;16.30;;;;;;;7.49;69.90;100351.34;6321226;28;19920;-75
2022/04/15 00:20:58;;;;;;;34.85;16.73;;;;;;;7.46;72.50;100360.13;6280322;28;20048;-76
2022/04/15 00:23:58;;;;;;;34.97;17.40;;;;;;;7.43;72.24;100356.81;6294651;28;20040;-71
2022/04/15 00:26:59;;;;;;;30.52;15.30;;;;;;;7.34;68.82;100357.22;6294627;28;20056;-75
2022/04/15 00:30:00;;;;;;;29.48;14.63;;;;;;;7.24;70.40;100349.81;6295888;28;20493;-75
2022/04/15 00:33:01;;;;;;;28.70;14.40;;;;;;;7.15;72.06;100352.78;6295814;28;20040;-75
2022/04/15 00:36:02;;;;;;;31.98;15.65;;;;;;;7.15;72.74;100360.59;6294597;28;20106;-75
2022/04/15 00:39:03;;;;;;;31.15;14.30;;;;;;;7.12;70.53;100357.25;6295643;28;20045;-72
2022/04/15 00:42:07;;;;;;;28.25;13.85;;;;;;;7.10;69.59;100354.72;6261201;28;20048;-75
2022/04/15 00:45:09;;;;;;;32.17;14.00;;;;;;;7.06;73.56;100359.22;6294442;28;20056;-75
2022/04/15 00:48:11;;;;;;;26.88;13.40;;;;;;;6.99;74.34;100355.19;6295610;28;20383;-71
2022/04/15 00:51:12;;;;;;;28.95;13.50;;;;;;;6.96;71.32;100351.84;6295415;28;20090;-71
2022/04/15 00:54:13;;;;;;;25.83;13.65;;;;;;;6.93;71.22;100354.59;6294575;28;20473;-71
2022/04/15 00:57:16;;;;;;;20.63;12.77;;;;;;;6.92;70.19;100352.91;6293813;28;20080;-71
2022/04/15 01:00:18;;;;;;;27.17;13.35;;;;;;;6.90;71.09;100354.69;6295317;28;20047;-71
2022/04/15 01:03:21;;;;;;;27.55;13.05;;;;;;;6.87;68.75;100345.31;6294167;28;20056;-71
2022/04/15 01:06:24;;;;;;;;;;;;;;;6.81;71.43;100343.78;6278347;28;20051;-75
2022/04/15 01:09:26;;;;;;;23.52;12.18;;;;;;;6.76;71.57;100343.16;6293909;28;19924;-71
2022/04/15 01:12:29;;;;;;;26.05;12.27;;;;;;;6.71;70.10;100345.06;6294021;28;20044;-72
2022/04/15 01:15:30;;;;;;;22.50;11.85;;;;;;;6.57;71.99;100344.78;6295224;28;20080;-71
2022/04/15 01:18:31;;;;;;;22.83;11.65;;;;;;;6.49;73.02;100342.53;6293781;28;20058;-72
2022/04/15 01:21:34;;;;;;;26.63;12.02;;;;;;;6.46;73.87;100332.25;6276967;28;20048;-71
2022/04/15 01:24:38;;;;;;;21.73;11.70;;;;;;;6.45;72.34;100334.00;6293643;28;20049;-75
2022/04/15 01:27:44;;;;;;;20.88;11.82;;;;;;;6.45;71.75;100331.41;6277766;28;20041;-75
2022/04/15 01:30:46;;;;;;;20.90;11.40;;;;;;;6.42;70.18;100326.38;6293800;28;20488;-71
2022/04/15 01:33:46;;;;;;;21.95;11.98;;;;;;;6.37;70.22;100317.09;6277304;28;20052;-71
2022/04/15 01:36:47;;;;;;;19.80;11.85;;;;;;;6.26;73.39;100320.09;6295038;28;20067;-71
2022/04/15 01:39:49;;;;;;;21.00;10.68;;;;;;;6.27;73.51;100323.53;6277034;28;20048;-71
2022/04/15 01:42:50;;;;;;;17.98;11.80;;;;;;;6.22;72.27;100315.94;6295008;28;20469;-75
2022/04/15 01:45:50;;;;;;;23.08;12.40;;;;;;;6.21;70.58;100314.22;6293806;28;20048;-75
2022/04/15 01:48:51;;;;;;;22.80;11.10;;;;;;;6.18;71.40;100304.00;6293785;28;20048;-75
2022/04/15 01:51:52;;;;;;;19.83;11.55;;;;;;;6.16;73.53;100313.59;6294726;28;20411;-75
2022/04/15 01:54:53;;;;;;;21.13;11.60;;;;;;;6.10;72.31;100312.06;6277204;28;20060;-76
2022/04/15 01:57:55;;;;;;;21.02;11.00;;;;;;;6.10;73.79;100309.47;6293471;28;20044;-76
2022/04/15 02:00:55;;;;;;;20.50;11.75;;;;;;;6.10;74.83;100303.47;6293720;28;20053;-75
2022/04/15 02:03:56;;;;;;;26.38;12.60;;;;;;;5.99;74.16;100298.66;6293459;28;20532;-75
2022/04/15 02:06:57;;;;;;;20.98;11.57;;;;;;;5.96;73.09;100303.97;6293405;28;20040;-75
2022/04/15 02:09:58;;;;;;;30.20;11.63;;;;;;;5.96;73.74;100299.63;6280745;28;20506;-71
2022/04/15 02:12:59;;;;;;;21.00;11.80;;;;;;;5.92;75.61;100286.84;6297800;28;20052;-71
2022/04/15 02:16:00;;;;;;;21.88;12.25;;;;;;;5.85;76.22;100291.41;6297600;28;20067;-75
2022/04/15 02:19:02;;;;;;;24.58;11.77;;;;;;;5.76;76.65;100289.13;6299021;28;20048;-71
2022/04/15 02:22:03;;;;;;;29.73;12.43;;;;;;;5.71;76.66;100281.56;6297429;28;20056;-71
2022/04/15 02:25:05;;;;;;;23.83;12.60;;;;;;;5.71;75.63;100278.97;6264311;28;20052;-71
2022/04/15 02:28:05;;;;;;;21.70;12.10;;;;;;;5.69;76.66;100278.19;6281275;28;20057;-71
2022/04/15 02:31:06;;;;;;;19.30;11.13;;;;;;;5.71;76.54;100273.78;6298560;28;20078;-71
2022/04/15 02:34:07;;;;;;;21.20;11.80;;;;;;;5.70;76.78;100268.66;6297359;28;20527;-71
2022/04/15 02:37:08;;;;;;;23.60;12.27;;;;;;;5.59;72.88;100269.91;6298665;28;20071;-72
2022/04/15 02:40:09;;;;;;;22.33;12.40;;;;;;;5.54;74.07;100274.41;6297272;28;20067;-75
2022/04/15 02:43:11;;;;;;;20.73;10.73;;;;;;;5.43;72.57;100273.94;6280663;28;20044;-75
2022/04/15 02:46:13;;;;;;;21.45;12.25;;;;;;;5.41;74.04;100266.22;6298320;28;20067;-75
2022/04/15 02:49:14;;;;;;;22.15;11.55;;;;;;;5.48;73.65;100268.59;6298381;28;20495;-71
2022/04/15 02:52:15;;;;;;;22.70;12.03;;;;;;;5.51;73.83;100266.75;6280090;28;20044;-72
2022/04/15 02:55:16;;;;;;;25.85;12.02;;;;;;;5.44;73.96;100265.31;6296948;28;20490;-71
2022/04/15 02:58:17;;;;;;;27.98;12.15;;;;;;;5.31;73.97;100270.03;6298138;28;20042;-71
2022/04/15 03:01:18;;;;;;;21.25;10.95;;;;;;;5.27;74.21;100272.81;6297876;28;20036;-75
2022/04/15 03:04:19;;;;;;;28.92;12.35;;;;;;;5.29;75.51;100274.44;6296977;28;20043;-71
2022/04/15 03:07:20;;;;;;;26.17;12.43;;;;;;;5.31;76.93;100279.56;6296916;28;20036;-75
2022/04/15 03:10:20;;;;;;;19.98;11.90;;;;;;;5.33;77.00;100277.75;6263456;28;20052;-75
2022/04/15 03:13:21;;;;;;;22.02;11.05;;;;;;;5.29;76.71;100274.44;6297818;28;20151;-75
2022/04/15 03:16:22;;;;;;;21.95;12.07;;;;;;;5.20;79.14;100277.38;6296422;28;20055;-75
2022/04/15 03:19:23;;;;;;;19.58;11.48;;;;;;;5.21;78.50;100273.91;6295920;28;20044;-75
2022/04/15 03:22:23;;;;;;;21.08;11.93;;;;;;;5.19;79.01;100273.09;6296274;28;20492;-75
2022/04/15 03:25:24;;;;;;;22.63;11.85;;;;;;;5.17;79.32;100270.56;6297540;28;20036;-75
2022/04/15 03:28:25;;;;;;;22.40;11.63;;;;;;;5.05;81.17;100268.41;6296210;28;20542;-75
2022/04/15 03:31:26;;;;;;;22.30;11.82;;;;;;;5.08;78.61;100275.22;6262883;28;20507;-75
2022/04/15 03:34:26;;;;;;;20.23;12.30;;;;;;;5.07;78.37;100276.13;6296114;28;20040;-71
2022/04/15 03:37:27;;;;;;;20.15;11.27;;;;;;;5.04;77.13;100271.88;6297295;28;20047;-71
2022/04/15 03:40:28;;;;;;;22.38;11.20;;;;;;;5.03;79.25;100276.22;6297656;28;20049;-71
2022/04/15 03:43:29;;;;;;;23.48;10.90;;;;;;;5.07;79.40;100269.19;6278988;28;20052;-71
2022/04/15 03:46:30;;;;;;;19.73;11.40;;;;;;;5.10;79.85;100266.47;6296903;28;20044;-75
2022/04/15 03:49:32;;;;;;;23.33;11.95;;;;;;;5.14;79.02;100268.06;6297021;28;20052;-71
2022/04/15 03:52:42;;;;;;;24.65;12.10;;;;;;;5.13;78.76;100270.72;6295445;28;20049;-71
2022/04/15 03:55:43;;;;;;;22.38;11.25;;;;;;;5.07;76.61;100268.34;6296741;28;20048;-71
2022/04/15 03:58:44;;;;;;;20.87;11.60;;;;;;;4.98;77.82;100279.84;6295442;28;20049;-75
2022/04/15 04:01:45;;;;;;;23.95;12.05;;;;;;;5.00;78.47;100272.88;6296623;28;20043;-75
2022/04/15 04:04:46;;;;;;;22.95;11.80;;;;;;;5.01;81.61;100274.59;6295297;28;20040;-75
2022/04/15 04:07:47;;;;;;;25.85;12.10;;;;;;;5.02;82.17;100279.72;6295190;28;20053;-75
2022/04/15 04:10:47;;;;;;;25.85;11.48;;;;;;;4.99;81.23;100286.72;6295211;28;20052;-75
2022/04/15 04:13:49;;;;;;;19.05;11.50;;;;;;;5.00;81.01;100286.69;6296274;28;20051;-71
2022/04/15 04:16:50;;;;;;;22.17;11.52;;;;;;;4.98;81.38;100282.44;6296138;28;20511;-75
2022/04/15 04:19:51;;;;;;;24.65;13.00;;;;;;;5.00;82.46;100293.56;6278265;28;20056;-75
2022/04/15 04:22:51;;;;;;;25.25;13.32;;;;;;;4.98;85.03;100291.06;6294827;28;20032;-71
2022/04/15 04:25:52;;;;;;;22.75;12.20;;;;;;;5.03;82.99;100291.72;6295910;28;20040;-71
2022/04/15 04:28:53;;;;;;;22.92;12.60;;;;;;;5.10;79.13;100279.41;6294780;28;20539;-71
2022/04/15 04:31:54;;;;;;;27.38;11.82;;;;;;;5.15;75.44;100282.72;6295164;28;20040;-75
2022/04/15 04:34:54;;;;;;;23.48;12.23;;;;;;;5.32;72.41;100284.69;6277868;28;20110;-75
2022/04/15 04:37:55;;;;;;;23.13;12.65;;;;;;;5.48;68.95;100287.59;6294620;28;20036;-75
2022/04/15 04:40:56;;;;;;;22.52;12.48;;;;;;;5.62;67.87;100279.28;6261515;28;20044;-71
2022/04/15 04:43:57;;;;;;;25.00;12.55;;;;;;;5.74;67.21;100284.00;6277761;28;20122;-71
2022/04/15 04:46:59;;;;;;;22.33;12.50;;;;;;;5.86;66.81;100287.91;6296132;28;20048;-71
2022/04/15 04:50:01;;;;;;;26.83;12.70;;;;;;;5.99;66.49;100293.47;6294573;28;20078;-71
2022/04/15 04:53:02;;;;;;;23.48;12.27;;;;;;;6.09;65.54;100293.97;6294140;28;20780;-75
2022/04/15 04:56:03;;;;;;;23.70;12.25;;;;;;;6.23;65.55;100295.13;6294896;28;20044;-71
2022/04/15 04:59:04;;;;;;;22.60;12.57;;;;;;;6.35;65.98;100291.22;6305779;28;20056;-71
2022/04/15 05:02:04;;;;;;;28.00;12.90;;;;;;;6.49;65.36;100287.25;6282013;28;20053;-71
2022/04/15 05:05:06;;;;;;;27.40;12.05;;;;;;;6.62;65.11;100299.63;6294728;28;20049;-71
2022/04/15 05:08:07;;;;;;;28.35;12.20;;;;;;;6.79;63.49;100296.34;6294358;28;20040;-71
2022/04/15 05:11:08;;;;;;;31.52;11.50;;;;;;;6.96;63.90;100299.97;6260886;28;20539;-71
2022/04/15 05:14:08;;;;;;;25.92;12.30;;;;;;;7.13;63.04;100294.09;6277177;28;20466;-71
2022/04/15 05:17:09;;;;;;;25.70;12.25;;;;;;;7.30;62.93;100301.16;6295269;28;20041;-71
2022/04/15 05:20:10;;;;;;;23.52;11.80;;;;;;;7.52;62.42;100306.25;6294173;28;20051;-72
2022/04/15 05:23:12;;;;;;;20.45;11.07;;;;;;;7.70;62.83;100299.38;6311501;28;20484;-71
2022/04/15 05:26:14;;;;;;;;;;;;;;;7.84;62.73;100307.38;6319443;28;20052;-71
2022/04/15 05:29:14;;;;;;;22.23;11.25;;;;;;;7.97;62.04;100302.44;6318737;28;19920;-72
2022/04/15 05:32:15;;;;;;;21.88;11.18;;;;;;;8.16;61.23;100311.09;6293977;28;20165;-72
2022/04/15 05:35:16;;;;;;;22.35;11.38;;;;;;;8.26;62.20;100314.13;6277447;28;20051;-72
2022/04/15 05:38:18;;;;;;;20.25;11.45;;;;;;;8.38;61.81;100315.25;6302052;28;20055;-74
2022/04/15 05:41:18;;;;;;;24.90;12.73;;;;;;;8.60;60.66;100310.75;6320104;28;20067;-75
2022/04/15 05:44:19;;;;;;;19.90;10.07;;;;;;;8.81;58.90;100316.69;6323724;28;20483;-75
2022/04/15 05:47:20;;;;;;;17.98;10.48;;;;;;;8.98;59.97;100312.41;6325056;28;20057;-75
2022/04/15 05:50:21;;;;;;;19.45;10.18;;;;;;;9.20;61.45;100318.16;6290257;28;20073;-75
2022/04/15 05:53:22;;;;;;;19.63;9.73;;;;;;;9.35;59.27;100310.50;6323501;28;20046;-75
2022/04/15 05:56:23;;;;;;;21.25;9.70;;;;;;;9.57;57.97;100308.44;6340405;28;20048;-75
2022/04/15 05:59:23;;;;;;;16.95;8.95;;;;;;;9.74;58.82;100314.53;6289932;28;20522;-75
2022/04/15 06:02:24;;;;;;;20.17;8.27;;;;;;;9.87;56.97;100299.94;6313818;28;20043;-72
2022/04/15 06:05:27;;;;;;;19.75;8.27;;;;;;;10.07;57.08;100304.06;6298119;28;20103;-71
2022/04/15 06:08:28;;;;;;;16.48;8.27;;;;;;;10.25;56.48;100308.28;6297868;28;20057;-71
2022/04/15 06:11:29;;;;;;;14.63;8.38;;;;;;;10.45;57.72;100303.72;6297938;28;20397;-71
2022/04/15 06:14:33;;;;;;;18.15;8.65;;;;;;;10.59;55.75;100303.78;6297729;28;20048;-75
2022/04/15 06:17:34;;;;;;;15.40;7.50;;;;;;;10.84;55.72;100304.97;6314279;28;20049;-75
2022/04/15 06:20:34;;;;;;;16.85;8.23;;;;;;;11.07;56.44;100301.03;6291981;28;20044;-74
2022/04/15 06:23:35;;;;;;;18.42;7.65;;;;;;;11.35;54.55;100291.56;6322514;28;20071;-75
2022/04/15 06:26:36;;;;;;;15.27;7.82;;;;;;;11.58;53.03;100295.38;6305878;28;20597;-75
2022/04/15 06:29:37;;;;;;;21.23;9.18;;;;;;;11.75;52.88;100292.53;6305709;28;20056;-71
2022/04/15 06:32:38;;;;;;;16.65;7.82;;;;;;;11.92;52.07;100294.13;6322537;28;20059;-71
2022/04/15 06:35:47;;;;;;;18.83;8.13;;;;;;;11.98;50.96;100287.69;6339386;28;20058;-71
2022/04/15 06:38:48;;;;;;;15.23;8.07;;;;;;;12.07;49.56;100290.56;6322669;28;20156;-71
2022/04/15 06:41:48;;;;;;;16.95;7.65;;;;;;;12.38;51.23;100290.38;6288902;28;20081;-71
2022/04/15 06:44:50;;;;;;;16.25;7.68;;;;;;;12.60;50.13;100287.19;6322275;28;20530;-71
2022/04/15 06:47:51;;;;;;;16.55;7.57;;;;;;;12.83;48.20;100283.91;6339233;28;20056;-71
2022/04/15 06:50:53;;;;;;;14.77;6.75;;;;;;;13.07;48.46;100291.91;6339219;28;20052;-75
2022/04/15 06:53:54;;;;;;;13.23;7.53;;;;;;;13.27;47.70;100279.22;6338040;28;20463;-75
2022/04/15 06:56:55;;;;;;;12.73;7.07;;;;;;;13.43;46.91;100284.28;6322161;28;20040;-75
2022/04/15 06:59:56;;;;;;;13.85;6.18;;;;;;;13.47;46.23;100285.75;6305023;28;20110;-75
2022/04/15 07:02:57;;;;;;;9.43;6.22;;;;;;;13.63;45.27;100291.59;6304239;28;20384;-75
2022/04/15 07:05:58;;;;;;;16.27;6.55;;;;;;;13.77;44.15;100297.63;6321657;28;20476;-75
2022/04/15 07:08:58;;;;;;;19.45;7.40;;;;;;;13.93;43.48;100290.34;6287685;28;20499;-76
2022/04/15 07:11:59;;;;;;;11.23;5.63;;;;;;;14.09;43.37;100290.94;6304288;28;20044;-75
2022/04/15 07:15:01;;;;;;;13.90;6.63;;;;;;;14.25;42.10;100288.06;6321011;28;20040;-71
2022/04/15 07:18:05;;;;;;;15.98;6.60;;;;;;;14.44;40.65;100287.53;6315880;28;20052;-71
2022/04/15 07:21:05;;;;;;;13.45;6.55;;;;;;;14.64;40.39;100285.25;6310287;28;20143;-71
2022/04/15 07:24:06;;;;;;;14.38;6.97;;;;;;;14.79;39.59;100289.38;6338206;28;20415;-71
2022/04/15 07:27:07;;;;;;;18.42;6.63;;;;;;;14.97;39.25;100288.94;6338206;28;20393;-72
2022/04/15 07:30:09;;;;;;;16.27;7.00;;;;;;;15.21;40.51;100291.47;6312777;28;20086;-72
2022/04/15 07:33:10;;;;;;;13.60;6.97;;;;;;;15.40;40.46;100293.53;6313861;28;20055;-71
2022/04/15 07:39:31;;;;;;;10.88;6.35;;;;;;;15.77;39.97;100296.78;6321261;28;20044;-72
2022/04/15 07:42:32;;;;;;;;;;;;;;;15.91;38.43;100298.31;6301603;28;20098;-72
2022/04/15 07:45:33;;;;;;;9.70;6.18;;;;;;;16.18;38.54;100294.44;6295629;28;19921;-72
2022/04/15 07:48:34;;;;;;;12.75;6.88;;;;;;;16.37;37.58;100294.63;6295561;28;20056;-72
2022/04/15 07:51:36;;;;;;;15.05;6.30;;;;;;;16.38;37.65;100293.66;6296840;28;20037;-72
2022/04/15 07:54:37;;;;;;;;;;;;;;;16.58;38.11;100296.47;6299286;28;20044;-72
2022/04/15 07:57:38;;;;;;;11.07;5.60;;;;;;;16.69;38.91;100291.97;6313178;28;20342;-71
2022/04/15 08:00:39;;;;;;;12.43;5.33;;;;;;;17.04;36.01;100303.19;6278707;28;20060;-71
2022/04/15 08:03:40;;;;;;;22.65;7.03;;;;;;;17.22;36.65;100303.47;6307352;28;20426;-71
2022/04/15 08:06:43;;;;;;;10.27;4.88;;;;;;;17.35;35.43;100288.25;6337346;28;20090;-71
2022/04/15 08:09:43;;;;;;;8.88;4.90;;;;;;;17.47;35.97;100289.81;6337241;28;20056;-72
2022/04/15 08:12:44;;;;;;;8.93;5.22;;;;;;;17.77;34.40;100284.66;6278430;28;20152;-72
2022/04/15 08:15:46;;;;;;;13.63;5.50;;;;;;;17.79;33.98;100286.22;6311400;28;20147;-72
2022/04/15 08:18:48;;;;;;;18.73;5.25;;;;;;;18.06;34.08;100285.59;6278338;28;20509;-71
2022/04/15 08:21:51;;;;;;;10.55;5.90;;;;;;;18.49;35.35;100278.25;6294759;28;20098;-71
2022/04/15 08:24:52;;;;;;;10.35;5.55;;;;;;;18.71;34.92;100279.78;6311532;28;20133;-71
2022/04/15 08:27:52;;;;;;;11.87;5.80;;;;;;;18.90;34.07;100269.22;6278346;28;20135;-71
2022/04/15 08:30:53;;;;;;;13.85;5.75;;;;;;;18.93;35.12;100273.38;6311642;28;20058;-71
2022/04/15 08:33:54;;;;;;;10.93;5.30;;;;;;;19.26;33.50;100274.69;6287068;28;20067;-71
2022/04/15 08:36:55;;;;;;;9.82;4.47;;;;;;;19.38;31.40;100266.59;6320210;28;20393;-77
2022/04/15 08:39:56;;;;;;;7.55;4.70;;;;;;;19.56;32.52;100272.78;6294633;28;20055;-76
2022/04/15 08:43:00;;;;;;;9.10;4.38;;;;;;;19.77;31.45;100269.91;6261198;28;20044;-76
2022/04/15 08:46:02;;;;;;;5.25;3.50;;;;;;;19.86;29.99;100263.72;6278028;28;20599;-76
2022/04/15 08:49:05;;;;;;;13.50;4.13;;;;;;;20.09;29.24;100265.94;6295602;28;20032;-76
2022/04/15 08:52:09;;;;;;;10.73;4.35;;;;;;;20.07;29.59;100268.72;6311090;28;20423;-72
2022/04/15 08:55:10;;;;;;;11.75;3.80;;;;;;;20.21;28.47;100263.91;6294066;28;20048;-71
2022/04/15 08:58:11;;;;;;;8.27;3.70;;;;;;;20.32;28.38;100263.66;6294306;28;20523;-72
2022/04/15 09:01:12;;;;;;;9.70;3.45;;;;;;;20.57;27.94;100262.09;6294134;28;20068;-72
2022/04/15 09:04:14;;;;;;;8.10;3.30;;;;;;;20.76;26.81;100260.28;6277158;28;20071;-71
2022/04/15 09:07:18;;;;;;;5.00;3.28;;;;;;;20.86;28.12;100267.13;6310810;28;20052;-72
2022/04/15 09:10:19;;;;;;;6.35;3.65;;;;;;;20.86;27.47;100261.84;6293994;28;20057;-72
2022/04/15 09:13:22;;;;;;;6.60;3.50;;;;;;;21.01;27.06;100254.13;6310786;28;20045;-73
2022/04/15 09:16:25;;;;;;;7.40;3.80;;;;;;;21.40;27.22;100245.72;6277745;28;20144;-72
2022/04/15 09:19:25;;;;;;;7.88;3.50;;;;;;;21.55;27.49;100248.63;6285796;28;20678;-72
2022/04/15 09:22:26;;;;;;;7.30;2.80;;;;;;;21.60;24.41;100245.47;6319222;28;20041;-72
2022/04/15 09:25:28;;;;;;;5.17;2.63;;;;;;;21.76;23.61;100245.53;6302131;28;20119;-72
2022/04/15 09:28:29;;;;;;;4.70;2.50;;;;;;;21.45;22.59;100239.97;6318852;28;20075;-72
2022/04/15 09:31:30;;;;;;;5.40;2.75;;;;;;;22.03;23.10;100230.31;6285482;28;20059;-72
2022/04/15 09:34:31;;;;;;;7.33;2.67;;;;;;;22.27;21.87;100233.03;6268918;28;20456;-77
2022/04/15 09:37:40;;;;;;;6.13;2.80;;;;;;;22.43;22.88;100234.88;6314177;28;20571;-77
2022/04/15 09:40:41;;;;;;;9.82;2.90;;;;;;;22.42;24.89;100232.38;6310375;28;20567;-77
2022/04/15 09:43:52;;;;;;;5.97;2.90;;;;;;;22.38;24.92;100231.06;6309131;28;20061;-77
2022/04/15 09:46:54;;;;;;;7.45;3.13;;;;;;;22.37;23.81;100234.72;6329580;28;20052;-77
2022/04/15 09:49:54;;;;;;;;;;;;;;;22.65;23.54;100224.56;6310692;28;20044;-77
2022/04/15 09:53:13;;;;;;;4.53;2.63;;;;;;;23.01;24.86;100224.19;6326988;28;19943;-77
2022/04/15 09:56:15;;;;;;;10.43;3.15;;;;;;;22.65;22.19;100216.59;6328524;28;20036;-72
2022/04/15 09:59:19;;;;;;;7.20;3.05;;;;;;;22.34;22.53;100214.59;6326882;28;20068;-73
2022/04/15 10:02:22;;;;;;;7.38;3.28;;;;;;;22.44;21.92;100212.59;6343761;28;20054;-72
2022/04/15 10:05:23;;;;;;;6.07;3.33;;;;;;;22.06;22.12;100214.06;6326758;28;20040;-72
2022/04/15 10:08:26;;;;;;;7.73;2.97;;;;;;;22.56;22.87;100210.44;6328043;28;20411;-72
2022/04/15 10:11:27;;;;;;;4.10;3.00;;;;;;;22.06;23.49;100206.94;6326758;28;20044;-73
2022/04/15 10:14:28;;;;;;;8.13;3.38;;;;;;;22.06;22.15;100200.78;6326729;28;20101;-73
2022/04/15 10:17:29;;;;;;;8.80;3.40;;;;;;;22.65;22.28;100201.47;6327698;28;20052;-72
2022/04/15 10:20:32;;;;;;;5.72;2.70;;;;;;;23.00;21.92;100202.06;6309898;28;20280;-72
2022/04/15 10:23:35;;;;;;;5.05;2.83;;;;;;;22.12;21.98;100198.31;6309825;28;20047;-73
2022/04/15 10:26:41;;;;;;;6.88;2.70;;;;;;;22.54;21.89;100196.50;6326479;28;20475;-72
2022/04/15 10:29:46;;;;;;;7.07;3.00;;;;;;;22.99;20.93;100186.28;6322360;28;20143;-73
2022/04/15 10:32:55;;;;;;;6.22;2.53;;;;;;;23.07;20.91;100184.44;6322419;28;20051;-73
2022/04/15 10:36:16;;;;;;;7.57;2.80;;;;;;;22.54;21.20;100188.50;6322497;28;20395;-73
2022/04/15 10:39:25;;;;;;;4.47;2.50;;;;;;;22.70;21.98;100191.16;6339212;28;20051;-73
2022/04/15 10:42:31;;;;;;;4.55;2.50;;;;;;;22.84;22.01;100197.63;6323372;28;20052;-73
2022/04/15 10:45:36;;;;;;;4.35;2.30;;;;;;;23.51;20.54;100185.75;6339040;28;20052;-73
2022/04/15 10:48:38;;;;;;;4.78;2.63;;;;;;;23.85;22.06;100184.59;6305669;28;20101;-72
2022/04/15 10:51:39;;;;;;;;;;;;;;;23.95;20.45;100177.19;6305640;28;20052;-72
2022/04/15 10:54:48;;;;;;;4.82;2.40;;;;;;;24.26;21.60;100174.44;6305182;28;19973;-73
2022/04/15 10:57:49;;;;;;;4.63;2.20;;;;;;;24.46;21.49;100166.78;6331392;28;20113;-73
2022/04/15 11:01:19;;;;;;;5.50;2.10;;;;;;;24.25;19.35;100163.94;6318411;28;20048;-73
2022/04/15 11:04:25;;;;;;;7.13;2.55;;;;;;;23.96;19.66;100159.34;6296811;28;20056;-73
2022/04/15 11:07:29;;;;;;;10.60;3.45;;;;;;;23.99;21.36;100166.97;6304479;28;20055;-72
2022/04/15 11:10:40;;;;;;;5.03;2.47;;;;;;;24.22;20.72;100161.66;6304890;28;20051;-72
2022/04/15 11:13:42;;;;;;;4.68;2.38;;;;;;;24.01;20.09;100165.81;6338612;28;20044;-77
2022/04/15 11:16:48;;;;;;;4.55;2.75;;;;;;;24.03;21.84;100154.97;6338213;28;20056;-77
2022/04/15 11:19:49;;;;;;;3.45;2.42;;;;;;;24.28;20.41;100153.75;6321584;28;20052;-77
2022/04/15 11:22:51;;;;;;;4.53;2.40;;;;;;;24.37;19.98;100146.50;6288100;28;20074;-77
2022/04/15 11:25:57;;;;;;;4.03;2.28;;;;;;;22.99;21.37;100144.53;6314491;28;20051;-77
2022/04/15 11:29:00;;;;;;;3.85;2.35;;;;;;;22.65;20.68;100147.44;6297388;28;20048;-73
2022/04/15 11:32:05;;;;;;;4.13;2.45;;;;;;;22.99;20.65;100141.84;6297470;28;20049;-73
2022/04/15 11:35:08;;;;;;;5.60;2.30;;;;;;;21.75;20.74;100152.78;6296118;28;20045;-73
2022/04/15 11:38:13;;;;;;;5.05;2.40;;;;;;;22.02;21.04;100144.50;6295882;28;20524;-72
2022/04/15 11:41:22;;;;;;;5.13;2.53;;;;;;;22.53;22.22;100142.50;6295624;28;20048;-72
2022/04/15 11:44:29;;;;;;;8.65;2.40;;;;;;;22.00;22.38;100140.34;6297073;28;20041;-73
2022/04/15 11:47:31;;;;;;;3.67;2.25;;;;;;;22.79;21.56;100122.81;6295727;28;20425;-77
2022/04/15 11:50:31;;;;;;;;;;;;;;;22.51;22.23;100128.53;6296004;28;20550;-78
2022/04/15 11:53:34;;;;;;;5.90;2.28;;;;;;;23.33;21.92;100128.28;6314112;28;19924;-77
2022/04/15 11:56:35;;;;;;;3.60;1.95;;;;;;;23.46;22.01;100124.22;6337423;28;20500;-72
2022/04/15 11:59:54;;;;;;;5.10;2.03;;;;;;;24.06;22.62;100130.63;6320611;28;20544;-73
2022/04/15 12:03:01;;;;;;;4.35;2.08;;;;;;;24.08;21.27;100121.44;6321216;28;20105;-73
2022/04/15 12:06:05;;;;;;;4.00;2.30;;;;;;;24.33;21.96;100115.88;6320368;28;20143;-73
2022/04/15 12:09:10;;;;;;;3.20;2.10;;;;;;;24.43;21.99;100111.13;6321325;28;20040;-77
2022/04/15 12:12:11;;;;;;;6.32;2.42;;;;;;;24.84;20.04;100100.03;6319736;28;20044;-77
2022/04/15 12:15:13;;;;;;;6.43;2.30;;;;;;;24.88;21.34;100095.97;6319787;28;20063;-77
2022/04/15 12:18:15;;;;;;;7.55;2.65;;;;;;;24.72;21.51;100098.81;6320137;28;20052;-78
2022/04/15 12:21:16;;;;;;;6.25;2.75;;;;;;;24.10;19.77;100094.63;6319978;28;20119;-73
2022/04/15 12:24:22;;;;;;;9.05;1.92;;;;;;;24.77;22.04;100091.13;6336905;28;20401;-73
2022/04/15 12:27:32;;;;;;;4.05;1.98;;;;;;;25.16;20.72;100081.09;6319958;28;20052;-77
2022/04/15 12:30:39;;;;;;;4.68;2.20;;;;;;;25.18;20.24;100077.22;6319962;28;20133;-78
2022/04/15 12:33:46;;;;;;;4.90;2.30;;;;;;;24.26;20.37;100086.47;6302941;28;20054;-78
2022/04/15 12:36:47;;;;;;;3.83;1.92;;;;;;;24.30;20.64;100084.25;6336635;28;20056;-78
2022/04/15 12:39:52;;;;;;;4.00;2.40;;;;;;;24.20;20.12;100081.03;6320923;28;20039;-73
2022/04/15 12:42:55;;;;;;;5.13;2.10;;;;;;;23.78;20.08;100071.72;6320889;28;20043;-78
2022/04/15 12:45:58;;;;;;;5.95;2.08;;;;;;;23.11;21.07;100075.81;6336502;28;20121;-77
2022/04/15 12:48:59;;;;;;;11.32;2.10;;;;;;;22.98;20.33;100075.50;6319533;28;20051;-73
2022/04/15 12:52:13;;;;;;;4.20;2.07;;;;;;;23.08;20.00;100070.84;6301999;28;20385;-72
2022/04/15 12:55:28;;;;;;;3.40;1.90;;;;;;;23.37;20.12;100067.53;6336452;28;20451;-72
2022/04/15 12:58:29;;;;;;;8.43;2.15;;;;;;;23.83;20.11;100064.03;6319381;28;20105;-76
2022/04/15 13:01:31;;;;;;;7.03;2.25;;;;;;;23.89;20.02;100061.47;6285858;28;20518;-77
2022/04/15 13:04:32;;;;;;;2.88;1.90;;;;;;;23.12;19.59;100051.69;6302394;28;20048;-76
2022/04/15 13:07:34;;;;;;;6.00;2.35;;;;;;;23.34;19.89;100058.03;6336272;28;20048;-77
2022/04/15 13:10:35;;;;;;;5.30;2.20;;;;;;;22.69;20.46;100056.53;6302554;28;20225;-76
2022/04/15 13:13:37;;;;;;;6.27;2.13;;;;;;;21.99;21.42;100061.63;6336030;28;20056;-77
2022/04/15 13:16:38;;;;;;;;;;;;;;;22.27;21.62;100052.31;6319416;28;20293;-77
2022/04/15 13:19:40;;;;;;;7.03;2.23;;;;;;;22.36;20.23;100057.63;6335972;28;19920;-76
2022/04/15 13:22:45;;;;;;;8.80;2.15;;;;;;;22.18;19.55;100045.34;6302178;28;20469;-76
2022/04/15 13:25:46;;;;;;;3.53;2.25;;;;;;;22.28;19.61;100040.72;6319507;28;20048;-76
2022/04/15 13:28:47;;;;;;;5.05;2.15;;;;;;;22.47;20.11;100044.81;6318889;28;20126;-76
2022/04/15 13:31:48;;;;;;;5.60;1.88;;;;;;;22.35;20.01;100045.34;6269182;28;20068;-73
2022/04/15 13:34:49;;;;;;;5.45;2.30;;;;;;;22.22;20.84;100036.03;6335736;28;20048;-72
2022/04/15 13:37:50;;;;;;;3.77;2.47;;;;;;;22.41;20.48;100034.03;6335714;28;20079;-73
2022/04/15 13:40:51;;;;;;;4.47;2.40;;;;;;;22.52;22.38;100036.31;6335758;28;20415;-73
2022/04/15 13:43:53;;;;;;;4.03;2.67;;;;;;;22.62;22.43;100036.94;6318655;28;20531;-72
2022/04/15 13:46:54;;;;;;;3.53;2.22;;;;;;;22.65;22.04;100030.44;6335604;28;20481;-72
2022/04/15 13:49:55;;;;;;;4.05;2.50;;;;;;;22.04;22.14;100028.25;6319913;28;20040;-72
2022/04/15 13:59:34;;;;;;;11.07;3.22;;;;;;;21.04;28.00;100032.81;6319672;28;20047;-77
2022/04/15 14:02:35;;;;;;;9.77;3.67;;;;;;;20.89;27.88;100032.63;6320141;28;20044;-76
2022/04/15 14:05:36;;;;;;;8.97;3.40;;;;;;;20.69;27.91;100034.69;6324633;28;20400;-76
2022/04/15 14:08:37;;;;;;;5.90;3.20;;;;;;;20.68;28.36;100044.47;6323417;28;20400;-77
2022/04/15 14:11:40;;;;;;;14.20;3.57;;;;;;;20.52;28.58;100044.38;6340198;28;20083;-72
2022/04/15 14:14:41;;;;;;;8.88;4.40;;;;;;;20.33;29.27;100045.44;6324457;28;20067;-72